createdAt,value
2024-05-09T00:01:54.646Z,101340.85
2024-05-09T00:06:57.282Z,101333.22
2024-05-09T00:12:00.142Z,101337.34
2024-05-09T00:17:03.302Z,101339.02
2024-05-09T00:22:06.057Z,101335.27
2024-05-09T00:27:11.284Z,101333.79
2024-05-09T00:32:14.661Z,101325.06
2024-05-09T00:37:17.428Z,101324.70
2024-05-09T00:42:20.109Z,101320.88
2024-05-09T00:47:24.166Z,101329.13
2024-05-09T00:52:28.121Z,101337.70
2024-05-09T00:57:30.774Z,101339.00
2024-05-09T01:02:33.692Z,101338.23
2024-05-09T01:07:37.059Z,101335.23
2024-05-09T01:12:39.709Z,101335.90
2024-05-09T01:17:42.678Z,101332.98
2024-05-09T01:22:45.472Z,101334.17
2024-05-09T01:27:48.130Z,101340.30
2024-05-09T01:32:51.056Z,101341.92
2024-05-09T01:37:54.228Z,101339.95
2024-05-09T01:42:56.965Z,101338.21
2024-05-09T01:47:59.978Z,101336.88
2024-05-09T01:53:02.958Z,101339.11
2024-05-09T01:58:06.080Z,101336.98
2024-05-09T02:03:11.573Z,101328.97
2024-05-09T02:08:19.455Z,101330.30
2024-05-09T02:13:22.495Z,101336.31
2024-05-09T02:18:25.187Z,101343.66
2024-05-09T02:23:27.989Z,101345.16
2024-05-09T02:28:30.840Z,101341.98
2024-05-09T02:33:33.898Z,101341.65
2024-05-09T02:38:37.297Z,101339.95
2024-05-09T02:43:40.298Z,101338.73
2024-05-09T02:48:43.464Z,101345.03
2024-05-09T02:53:46.226Z,101344.65
2024-05-09T02:58:48.975Z,101349.66
2024-05-09T03:03:52.327Z,101348.97
2024-05-09T03:08:55.194Z,101352.05
2024-05-09T03:13:57.945Z,101352.20
2024-05-09T03:19:00.792Z,101350.80
2024-05-09T03:24:03.592Z,101356.86
2024-05-09T03:29:06.239Z,101363.38
2024-05-09T03:34:11.103Z,101362.88
2024-05-09T03:39:13.866Z,101362.81
2024-05-09T03:44:16.547Z,101353.73
2024-05-09T03:49:19.292Z,101350.05
2024-05-09T03:54:22.388Z,101350.12
2024-05-09T03:59:25.042Z,101344.90
2024-05-09T04:04:27.838Z,101351.85
2024-05-09T04:09:30.470Z,101346.70
2024-05-09T04:14:33.655Z,101350.73
2024-05-09T04:19:36.523Z,101349.95
2024-05-09T04:24:39.253Z,101354.80
2024-05-09T04:29:41.860Z,101350.42
2024-05-09T04:34:44.594Z,101341.69
2024-05-09T04:39:47.213Z,101351.65
2024-05-09T04:44:49.851Z,101389.39
2024-05-09T04:49:52.541Z,101419.28
2024-05-09T04:54:56.898Z,101418.43
2024-05-09T05:00:02.999Z,101386.05
2024-05-09T05:05:06.991Z,101326.11
2024-05-09T05:10:14.864Z,101329.95
2024-05-09T05:15:23.788Z,101331.95
2024-05-09T05:20:32.861Z,101333.41
2024-05-09T05:25:37.868Z,101325.53
2024-05-09T05:30:41.468Z,101324.73
2024-05-09T05:35:45.257Z,101319.59
2024-05-09T05:40:48.115Z,101321.08
2024-05-09T05:45:51.151Z,101314.17
2024-05-09T05:50:53.813Z,101306.24
2024-05-09T05:55:56.665Z,101308.51
2024-05-09T06:00:59.403Z,101309.34
2024-05-09T06:06:04.170Z,101311.60
2024-05-09T06:11:07.781Z,101311.05
2024-05-09T06:16:11.608Z,101316.49
2024-05-09T06:21:17.733Z,101316.90
2024-05-09T06:26:21.085Z,101319.52
2024-05-09T06:31:26.684Z,101312.24
2024-05-09T06:36:30.019Z,101299.47
2024-05-09T06:41:38.432Z,101285.88
2024-05-09T06:46:42.008Z,101275.08
2024-05-09T06:51:44.970Z,101265.95
2024-05-09T06:56:49.709Z,101249.02
2024-05-09T07:01:52.714Z,101244.67
2024-05-09T07:06:59.012Z,101237.68
2024-05-09T07:12:02.211Z,101236.31
2024-05-09T07:17:05.467Z,101235.63
2024-05-09T07:22:09.702Z,101232.63
2024-05-09T07:27:13.149Z,101233.46
2024-05-09T07:32:16.515Z,101222.16
2024-05-09T07:37:19.342Z,101216.70
2024-05-09T07:42:24.787Z,101211.67
2024-05-09T07:53:33.083Z,101209.71
2024-05-09T07:57:56.615Z,101210.10
2024-05-09T08:02:59.521Z,101210.09
2024-05-09T08:08:02.670Z,101209.88
2024-05-09T08:13:05.645Z,101208.69
2024-05-09T08:18:09.924Z,101203.91
2024-05-09T08:23:12.862Z,101202.65
2024-05-09T08:28:16.824Z,101210.18
2024-05-09T08:33:19.684Z,101212.11
2024-05-09T08:38:22.969Z,101207.02
2024-05-09T08:43:29.069Z,101204.34
2024-05-09T08:48:34.503Z,101199.83
2024-05-09T08:53:37.646Z,101200.63
2024-05-09T08:58:41.936Z,101195.39
2024-05-09T09:03:44.988Z,101189.73
2024-05-09T09:08:48.755Z,101189.96
2024-05-09T09:13:51.485Z,101184.77
2024-05-09T09:18:57.735Z,101181.09
2024-05-09T09:24:01.297Z,101187.70
2024-05-09T09:29:04.344Z,101190.82
2024-05-09T09:34:09.539Z,101184.21
2024-05-09T09:39:16.598Z,101179.10
2024-05-09T09:44:23.565Z,101180.49
2024-05-09T09:49:27.826Z,101175.56
2024-05-09T09:54:30.831Z,101170.80
2024-05-09T09:59:35.741Z,101171.42
2024-05-09T10:04:38.599Z,101168.80
2024-05-09T10:09:42.416Z,101163.52
2024-05-09T10:14:45.820Z,101164.00
2024-05-09T10:19:48.843Z,101157.10
2024-05-09T10:24:53.400Z,101159.69
2024-05-09T10:29:58.286Z,101155.17
2024-05-09T10:35:05.430Z,101156.13
2024-05-09T10:40:14.241Z,101150.71
2024-05-09T10:45:26.289Z,101148.11
2024-05-09T10:50:34.380Z,101150.91
2024-05-09T10:55:37.494Z,101141.80
2024-05-09T11:00:47.924Z,101144.02
2024-05-09T11:05:56.039Z,101137.98
2024-05-09T11:11:00.062Z,101133.84
2024-05-09T11:16:04.680Z,101125.73
2024-05-09T11:21:13.975Z,101119.77
2024-05-09T11:26:19.335Z,101117.24
2024-05-09T11:31:22.376Z,101112.48
2024-05-09T11:36:26.143Z,101111.30
2024-05-09T11:41:30.990Z,101107.51
2024-05-09T11:46:33.864Z,101096.11
2024-05-09T11:51:36.780Z,101094.05
2024-05-09T11:56:39.509Z,101086.05
2024-05-09T12:01:42.272Z,101079.08
2024-05-09T12:06:46.073Z,101075.77
2024-05-09T12:11:48.962Z,101067.80
2024-05-09T12:16:51.725Z,101063.78
2024-05-09T12:21:54.495Z,101068.64
2024-05-09T12:26:57.749Z,101061.98
2024-05-09T12:32:00.466Z,101057.08
2024-05-09T12:37:04.693Z,101053.44
2024-05-09T12:42:09.782Z,101048.41
2024-05-09T12:47:13.739Z,101041.30
2024-05-09T12:52:16.755Z,101040.04
2024-05-09T12:57:20.003Z,101040.27
2024-05-09T13:02:22.992Z,101033.30
2024-05-09T13:07:25.865Z,101024.77
2024-05-09T13:12:28.575Z,101025.67
2024-05-09T13:17:31.659Z,101016.14
2024-05-09T13:22:34.960Z,101014.72
2024-05-09T13:27:39.757Z,101011.11
2024-05-09T13:32:42.814Z,101007.35
2024-05-09T13:37:46.246Z,100995.67
2024-05-09T13:42:49.013Z,100995.86
2024-05-09T13:47:52.059Z,100992.59
2024-05-09T13:52:55.927Z,100989.48
2024-05-09T13:57:58.785Z,100984.51
2024-05-09T14:03:04.175Z,100980.13
2024-05-09T14:08:08.793Z,100977.77
2024-05-09T14:13:11.926Z,100970.27
2024-05-09T14:18:15.597Z,100964.52
2024-05-09T14:23:18.828Z,100961.76
2024-05-09T14:28:24.767Z,100952.21
2024-05-09T14:33:27.549Z,100946.27
2024-05-09T14:38:30.480Z,100941.31
2024-05-09T14:43:36.549Z,100935.15
2024-05-09T14:48:42.589Z,100926.77
2024-05-09T14:53:45.681Z,100923.88
2024-05-09T14:58:48.621Z,100921.36
2024-05-09T15:03:52.272Z,100910.14
2024-05-09T15:08:57.475Z,100905.52
2024-05-09T15:14:00.133Z,100895.91
2024-05-09T15:19:04.817Z,100886.63
2024-05-09T15:24:07.530Z,100883.77
2024-05-09T15:29:10.435Z,100879.45
2024-05-09T15:34:13.171Z,100877.01
2024-05-09T15:39:15.879Z,100880.48
2024-05-09T15:44:19.928Z,100877.94
2024-05-09T15:49:22.905Z,100873.06
2024-05-09T15:54:27.713Z,100869.75
2024-05-09T15:59:30.444Z,100865.58
2024-05-09T16:04:33.312Z,100859.05
2024-05-09T16:09:36.279Z,100862.50
2024-05-09T16:14:39.419Z,100859.07
2024-05-09T16:19:43.623Z,100852.95
2024-05-09T16:24:46.352Z,100853.33
2024-05-09T16:29:49.052Z,100845.67
2024-05-09T16:34:52.407Z,100844.50
2024-05-09T16:39:55.193Z,100839.48
2024-05-09T16:44:58.292Z,100835.89
2024-05-09T16:50:00.893Z,100839.46
2024-05-09T16:55:04.168Z,100837.08
2024-05-09T17:00:14.863Z,100836.11
2024-05-09T17:05:24.793Z,100832.02
2024-05-09T17:10:32.802Z,100827.92
2024-05-09T17:15:40.270Z,100822.27
2024-05-09T17:20:43.087Z,100826.53
2024-05-09T17:25:48.094Z,100826.83
2024-05-09T17:30:51.210Z,100822.78
2024-05-09T17:35:53.996Z,100816.27
2024-05-09T17:40:58.178Z,100809.67
2024-05-09T17:46:01.185Z,100807.69
2024-05-09T17:51:04.224Z,100808.02
2024-05-09T17:56:09.321Z,100806.20
2024-05-09T18:01:12.558Z,100808.41
2024-05-09T18:06:16.807Z,100805.36
2024-05-09T18:11:19.756Z,100810.13
2024-05-09T18:16:23.283Z,100806.84
2024-05-09T18:21:27.212Z,100813.89
2024-05-09T18:26:40.857Z,100815.49
2024-05-09T18:31:43.635Z,100817.08
2024-05-09T18:36:46.646Z,100819.84
2024-05-09T18:41:49.443Z,100820.61
2024-05-09T18:46:52.202Z,100820.50
2024-05-09T18:51:54.905Z,100819.70
2024-05-09T18:57:00.778Z,100823.36
2024-05-09T19:02:04.234Z,100822.66
2024-05-09T19:07:09.453Z,100825.81
2024-05-09T19:12:14.622Z,100822.95
2024-05-09T19:17:25.003Z,100827.95
2024-05-09T19:22:28.506Z,100824.62
2024-05-09T19:27:31.586Z,100824.55
2024-05-09T19:32:34.435Z,100825.25
2024-05-09T19:37:41.443Z,100823.74
2024-05-09T19:42:45.578Z,100823.49
2024-05-09T19:47:48.529Z,100824.97
2024-05-09T19:52:51.933Z,100829.38
2024-05-09T19:57:54.670Z,100826.54
2024-05-09T20:02:57.481Z,100826.75
2024-05-09T20:08:01.232Z,100823.98
2024-05-09T20:13:06.987Z,100823.71
2024-05-09T20:18:10.898Z,100824.97
2024-05-09T20:23:14.051Z,100822.36
2024-05-09T20:28:20.974Z,100821.33
2024-05-09T20:33:23.774Z,100821.69
2024-05-09T20:38:26.550Z,100822.02
2024-05-09T20:43:29.429Z,100822.17
2024-05-09T20:48:34.276Z,100818.66
2024-05-09T20:53:37.484Z,100816.29
2024-05-09T20:58:42.503Z,100819.49
2024-05-09T21:03:45.294Z,100823.06
2024-05-09T21:08:49.521Z,100825.09
2024-05-09T21:13:52.721Z,100827.69
2024-05-09T21:18:55.399Z,100827.10
2024-05-09T21:23:59.517Z,100823.67
2024-05-09T21:29:02.348Z,100824.58
2024-05-09T21:34:05.174Z,100824.56
2024-05-09T21:39:10.318Z,100822.96
2024-05-09T21:44:12.984Z,100823.48
2024-05-09T21:49:17.297Z,100826.31
2024-05-09T21:54:20.177Z,100822.39
2024-05-09T21:59:22.834Z,100830.03
2024-05-09T22:04:25.670Z,100835.54
2024-05-09T22:09:28.431Z,100829.46
2024-05-09T22:14:31.123Z,100822.83
2024-05-09T22:19:33.945Z,100818.61
2024-05-09T22:24:36.984Z,100816.65
2024-05-09T22:29:39.743Z,100815.42
2024-05-09T22:34:42.496Z,100812.02
2024-05-09T22:39:45.487Z,100807.12
2024-05-09T22:44:48.180Z,100803.15
2024-05-09T22:49:50.874Z,100799.54
2024-05-09T22:54:53.523Z,100794.58
2024-05-09T22:59:56.251Z,100793.59
2024-05-09T23:04:59.036Z,100792.75
2024-05-09T23:10:01.923Z,100791.38
2024-05-09T23:15:06.088Z,100796.09
2024-05-09T23:20:11.590Z,100787.52
2024-05-09T23:25:14.753Z,100789.02
2024-05-09T23:30:28.406Z,100782.99
2024-05-09T23:35:37.162Z,100779.22
2024-05-09T23:40:41.615Z,100778.37
2024-05-09T23:45:45.619Z,100775.06
2024-05-09T23:50:49.670Z,100773.12
2024-05-09T23:55:52.347Z,100767.45
